sensor_id;sensor_type;location;lat;lon;timestamp;P1;durP1;ratioP1;P2;durP2;ratioP2
78365;SDS011;67641;59.864;30.464;2024-01-15T00:00:55;7.70;;;3.33;;
78365;SDS011;67641;59.864;30.464;2024-01-15T00:03:21;10.63;;;3.70;;
78365;SDS011;67641;59.864;30.464;2024-01-15T00:05:48;8.73;;;3.25;;
78365;SDS011;67641;59.864;30.464;2024-01-15T00:08:14;7.43;;;3.22;;
78365;SDS011;67641;59.864;30.464;2024-01-15T00:10:40;7.95;;;3.13;;
78365;SDS011;67641;59.864;30.464;2024-01-15T00:13:06;6.75;;;3.22;;
78365;SDS011;67641;59.864;30.464;2024-01-15T00:15:32;9.10;;;3.08;;
78365;SDS011;67641;59.864;30.464;2024-01-15T00:17:59;6.70;;;3.08;;
78365;SDS011;67641;59.864;30.464;2024-01-15T00:20:25;7.28;;;3.60;;
78365;SDS011;67641;59.864;30.464;2024-01-15T00:22:51;9.90;;;3.83;;
78365;SDS011;67641;59.864;30.464;2024-01-15T00:25:17;9.15;;;3.58;;
78365;SDS011;67641;59.864;30.464;2024-01-15T00:27:43;16.65;;;4.63;;
78365;SDS011;67641;59.864;30.464;2024-01-15T00:30:09;7.45;;;3.50;;
78365;SDS011;67641;59.864;30.464;2024-01-15T00:32:36;10.65;;;3.63;;
78365;SDS011;67641;59.864;30.464;2024-01-15T00:35:02;10.80;;;3.47;;
78365;SDS011;67641;59.864;30.464;2024-01-15T00:37:29;6.03;;;2.95;;
78365;SDS011;67641;59.864;30.464;2024-01-15T00:39:55;6.28;;;2.97;;
78365;SDS011;67641;59.864;30.464;2024-01-15T00:42:21;6.68;;;3.08;;
78365;SDS011;67641;59.864;30.464;2024-01-15T00:44:47;5.53;;;2.60;;
78365;SDS011;67641;59.864;30.464;2024-01-15T00:47:13;6.93;;;3.15;;
78365;SDS011;67641;59.864;30.464;2024-01-15T00:49:39;7.20;;;3.00;;
78365;SDS011;67641;59.864;30.464;2024-01-15T00:52:05;6.57;;;3.08;;
78365;SDS011;67641;59.864;30.464;2024-01-15T00:54:31;6.40;;;2.70;;
78365;SDS011;67641;59.864;30.464;2024-01-15T00:56:57;6.80;;;3.05;;
78365;SDS011;67641;59.864;30.464;2024-01-15T00:59:24;6.93;;;3.15;;
78365;SDS011;67641;59.864;30.464;2024-01-15T01:01:50;7.53;;;3.10;;
78365;SDS011;67641;59.864;30.464;2024-01-15T01:04:16;6.03;;;2.92;;
78365;SDS011;67641;59.864;30.464;2024-01-15T01:06:42;5.90;;;2.63;;
78365;SDS011;67641;59.864;30.464;2024-01-15T01:09:08;7.47;;;2.95;;
78365;SDS011;67641;59.864;30.464;2024-01-15T01:11:34;5.90;;;2.40;;
78365;SDS011;67641;59.864;30.464;2024-01-15T01:14:00;4.68;;;2.28;;
78365;SDS011;67641;59.864;30.464;2024-01-15T01:16:27;4.70;;;2.58;;
78365;SDS011;67641;59.864;30.464;2024-01-15T01:18:53;5.32;;;2.60;;
78365;SDS011;67641;59.864;30.464;2024-01-15T01:21:19;5.10;;;2.72;;
78365;SDS011;67641;59.864;30.464;2024-01-15T01:23:45;4.18;;;2.17;;
78365;SDS011;67641;59.864;30.464;2024-01-15T01:26:14;4.90;;;2.10;;
78365;SDS011;67641;59.864;30.464;2024-01-15T01:28:41;8.43;;;2.50;;
78365;SDS011;67641;59.864;30.464;2024-01-15T01:31:08;5.72;;;2.13;;
78365;SDS011;67641;59.864;30.464;2024-01-15T01:33:34;5.57;;;2.03;;
78365;SDS011;67641;59.864;30.464;2024-01-15T01:36:00;4.15;;;1.70;;
78365;SDS011;67641;59.864;30.464;2024-01-15T01:38:33;6.13;;;2.10;;
78365;SDS011;67641;59.864;30.464;2024-01-15T01:40:59;7.63;;;2.20;;
78365;SDS011;67641;59.864;30.464;2024-01-15T01:43:26;4.18;;;1.90;;
78365;SDS011;67641;59.864;30.464;2024-01-15T01:45:52;4.68;;;2.10;;
78365;SDS011;67641;59.864;30.464;2024-01-15T01:48:23;7.18;;;2.10;;
78365;SDS011;67641;59.864;30.464;2024-01-15T01:50:54;8.27;;;1.95;;
78365;SDS011;67641;59.864;30.464;2024-01-15T01:53:24;4.20;;;1.80;;
78365;SDS011;67641;59.864;30.464;2024-01-15T01:55:53;3.17;;;1.80;;
78365;SDS011;67641;59.864;30.464;2024-01-15T01:58:20;4.30;;;1.98;;
78365;SDS011;67641;59.864;30.464;2024-01-15T02:00:46;4.90;;;2.05;;
78365;SDS011;67641;59.864;30.464;2024-01-15T02:03:13;3.78;;;1.90;;
78365;SDS011;67641;59.864;30.464;2024-01-15T02:05:40;3.85;;;1.85;;
78365;SDS011;67641;59.864;30.464;2024-01-15T02:08:10;3.88;;;1.60;;
78365;SDS011;67641;59.864;30.464;2024-01-15T02:10:37;5.93;;;1.95;;
78365;SDS011;67641;59.864;30.464;2024-01-15T02:13:03;5.78;;;2.53;;
78365;SDS011;67641;59.864;30.464;2024-01-15T02:15:30;7.20;;;2.08;;
78365;SDS011;67641;59.864;30.464;2024-01-15T02:20:24;4.35;;;1.80;;
78365;SDS011;67641;59.864;30.464;2024-01-15T02:22:52;3.13;;;1.90;;
78365;SDS011;67641;59.864;30.464;2024-01-15T02:25:18;4.82;;;1.98;;
78365;SDS011;67641;59.864;30.464;2024-01-15T02:27:45;3.72;;;1.67;;
78365;SDS011;67641;59.864;30.464;2024-01-15T02:30:12;3.83;;;1.75;;
78365;SDS011;67641;59.864;30.464;2024-01-15T02:32:39;4.05;;;1.80;;
78365;SDS011;67641;59.864;30.464;2024-01-15T02:35:05;7.13;;;2.20;;
78365;SDS011;67641;59.864;30.464;2024-01-15T02:37:32;6.90;;;1.88;;
78365;SDS011;67641;59.864;30.464;2024-01-15T02:39:58;3.70;;;1.60;;
78365;SDS011;67641;59.864;30.464;2024-01-15T02:42:26;7.05;;;1.70;;
78365;SDS011;67641;59.864;30.464;2024-01-15T02:44:52;3.25;;;1.40;;
78365;SDS011;67641;59.864;30.464;2024-01-15T02:47:18;5.55;;;1.88;;
78365;SDS011;67641;59.864;30.464;2024-01-15T02:49:44;4.05;;;1.30;;
78365;SDS011;67641;59.864;30.464;2024-01-15T02:52:10;3.42;;;1.30;;
78365;SDS011;67641;59.864;30.464;2024-01-15T02:54:36;4.38;;;1.60;;
78365;SDS011;67641;59.864;30.464;2024-01-15T02:57:02;5.13;;;1.80;;
78365;SDS011;67641;59.864;30.464;2024-01-15T02:59:28;4.97;;;1.33;;
78365;SDS011;67641;59.864;30.464;2024-01-15T03:01:54;4.55;;;1.70;;
78365;SDS011;67641;59.864;30.464;2024-01-15T03:04:20;5.72;;;2.00;;
78365;SDS011;67641;59.864;30.464;2024-01-15T03:06:47;4.80;;;1.80;;
78365;SDS011;67641;59.864;30.464;2024-01-15T03:09:13;4.63;;;1.38;;
78365;SDS011;67641;59.864;30.464;2024-01-15T03:11:39;3.58;;;1.70;;
78365;SDS011;67641;59.864;30.464;2024-01-15T03:14:05;6.07;;;1.58;;
78365;SDS011;67641;59.864;30.464;2024-01-15T03:16:32;4.78;;;1.40;;
78365;SDS011;67641;59.864;30.464;2024-01-15T03:18:58;4.28;;;1.60;;
78365;SDS011;67641;59.864;30.464;2024-01-15T03:21:24;3.78;;;1.50;;
78365;SDS011;67641;59.864;30.464;2024-01-15T03:23:50;3.05;;;1.10;;
78365;SDS011;67641;59.864;30.464;2024-01-15T03:26:16;3.67;;;1.20;;
78365;SDS011;67641;59.864;30.464;2024-01-15T03:28:42;4.57;;;1.40;;
78365;SDS011;67641;59.864;30.464;2024-01-15T03:31:08;3.95;;;1.42;;
78365;SDS011;67641;59.864;30.464;2024-01-15T03:33:34;4.20;;;1.48;;
78365;SDS011;67641;59.864;30.464;2024-01-15T03:36:01;5.05;;;1.33;;
78365;SDS011;67641;59.864;30.464;2024-01-15T03:38:28;6.38;;;1.52;;
78365;SDS011;67641;59.864;30.464;2024-01-15T03:40:55;4.03;;;1.42;;
78365;SDS011;67641;59.864;30.464;2024-01-15T03:43:22;4.72;;;1.40;;
78365;SDS011;67641;59.864;30.464;2024-01-15T03:45:48;4.30;;;1.38;;
78365;SDS011;67641;59.864;30.464;2024-01-15T03:48:15;3.05;;;1.10;;
78365;SDS011;67641;59.864;30.464;2024-01-15T03:50:41;6.53;;;1.23;;
78365;SDS011;67641;59.864;30.464;2024-01-15T03:53:08;4.38;;;1.50;;
78365;SDS011;67641;59.864;30.464;2024-01-15T03:55:34;2.85;;;1.35;;
78365;SDS011;67641;59.864;30.464;2024-01-15T03:58:01;5.47;;;2.00;;
78365;SDS011;67641;59.864;30.464;2024-01-15T04:00:27;4.65;;;1.98;;
78365;SDS011;67641;59.864;30.464;2024-01-15T04:02:54;4.38;;;1.90;;
78365;SDS011;67641;59.864;30.464;2024-01-15T04:05:20;3.53;;;1.70;;
78365;SDS011;67641;59.864;30.464;2024-01-15T04:07:47;5.35;;;1.80;;
78365;SDS011;67641;59.864;30.464;2024-01-15T04:10:13;4.53;;;2.10;;
78365;SDS011;67641;59.864;30.464;2024-01-15T04:12:40;7.93;;;2.03;;
78365;SDS011;67641;59.864;30.464;2024-01-15T04:15:06;6.00;;;2.20;;
78365;SDS011;67641;59.864;30.464;2024-01-15T04:17:33;6.13;;;2.35;;
78365;SDS011;67641;59.864;30.464;2024-01-15T04:20:00;6.53;;;1.98;;
78365;SDS011;67641;59.864;30.464;2024-01-15T04:22:26;5.80;;;1.60;;
78365;SDS011;67641;59.864;30.464;2024-01-15T04:24:53;5.85;;;2.25;;
78365;SDS011;67641;59.864;30.464;2024-01-15T04:27:19;8.10;;;1.67;;
78365;SDS011;67641;59.864;30.464;2024-01-15T04:29:46;6.00;;;1.50;;
78365;SDS011;67641;59.864;30.464;2024-01-15T04:32:12;4.50;;;1.38;;
78365;SDS011;67641;59.864;30.464;2024-01-15T04:34:39;4.45;;;1.42;;
78365;SDS011;67641;59.864;30.464;2024-01-15T04:37:05;6.00;;;1.55;;
78365;SDS011;67641;59.864;30.464;2024-01-15T04:39:32;6.18;;;1.40;;
78365;SDS011;67641;59.864;30.464;2024-01-15T04:41:58;4.80;;;1.60;;
78365;SDS011;67641;59.864;30.464;2024-01-15T04:44:25;4.57;;;1.42;;
78365;SDS011;67641;59.864;30.464;2024-01-15T04:46:51;5.15;;;1.25;;
78365;SDS011;67641;59.864;30.464;2024-01-15T04:49:18;12.60;;;2.13;;
78365;SDS011;67641;59.864;30.464;2024-01-15T04:51:44;7.60;;;1.70;;
78365;SDS011;67641;59.864;30.464;2024-01-15T04:54:11;4.97;;;1.95;;
78365;SDS011;67641;59.864;30.464;2024-01-15T04:56:37;7.22;;;1.48;;
78365;SDS011;67641;59.864;30.464;2024-01-15T04:59:04;5.25;;;1.85;;
78365;SDS011;67641;59.864;30.464;2024-01-15T05:01:31;5.80;;;1.55;;
78365;SDS011;67641;59.864;30.464;2024-01-15T05:03:58;5.05;;;2.65;;
78365;SDS011;67641;59.864;30.464;2024-01-15T05:06:25;6.85;;;1.75;;
78365;SDS011;67641;59.864;30.464;2024-01-15T05:08:51;6.55;;;1.60;;
78365;SDS011;67641;59.864;30.464;2024-01-15T05:11:18;11.98;;;2.00;;
78365;SDS011;67641;59.864;30.464;2024-01-15T05:13:44;8.32;;;2.20;;
78365;SDS011;67641;59.864;30.464;2024-01-15T05:16:11;6.97;;;2.30;;
78365;SDS011;67641;59.864;30.464;2024-01-15T05:18:37;6.07;;;2.00;;
78365;SDS011;67641;59.864;30.464;2024-01-15T05:21:04;9.77;;;2.28;;
78365;SDS011;67641;59.864;30.464;2024-01-15T05:23:33;6.82;;;2.10;;
78365;SDS011;67641;59.864;30.464;2024-01-15T05:26:00;6.82;;;2.00;;
78365;SDS011;67641;59.864;30.464;2024-01-15T05:28:26;11.98;;;2.13;;
78365;SDS011;67641;59.864;30.464;2024-01-15T05:30:53;5.22;;;1.60;;
78365;SDS011;67641;59.864;30.464;2024-01-15T05:33:24;7.70;;;1.73;;
78365;SDS011;67641;59.864;30.464;2024-01-15T05:35:50;12.00;;;3.53;;
78365;SDS011;67641;59.864;30.464;2024-01-15T05:38:17;8.75;;;3.13;;
78365;SDS011;67641;59.864;30.464;2024-01-15T05:40:43;7.10;;;2.05;;
78365;SDS011;67641;59.864;30.464;2024-01-15T05:43:10;5.38;;;1.63;;
78365;SDS011;67641;59.864;30.464;2024-01-15T05:45:38;3.10;;;1.45;;
78365;SDS011;67641;59.864;30.464;2024-01-15T05:48:05;5.55;;;1.95;;
78365;SDS011;67641;59.864;30.464;2024-01-15T05:50:32;4.13;;;1.90;;
78365;SDS011;67641;59.864;30.464;2024-01-15T05:52:58;9.55;;;1.83;;
78365;SDS011;67641;59.864;30.464;2024-01-15T05:55:25;7.35;;;1.73;;
78365;SDS011;67641;59.864;30.464;2024-01-15T05:57:52;6.97;;;1.95;;
78365;SDS011;67641;59.864;30.464;2024-01-15T06:00:18;5.18;;;2.08;;
78365;SDS011;67641;59.864;30.464;2024-01-15T06:02:45;5.22;;;1.70;;
78365;SDS011;67641;59.864;30.464;2024-01-15T06:05:12;6.18;;;1.67;;
78365;SDS011;67641;59.864;30.464;2024-01-15T06:07:39;9.07;;;2.28;;
78365;SDS011;67641;59.864;30.464;2024-01-15T06:10:06;7.50;;;1.80;;
78365;SDS011;67641;59.864;30.464;2024-01-15T06:12:32;6.05;;;1.80;;
78365;SDS011;67641;59.864;30.464;2024-01-15T06:14:59;4.80;;;1.70;;
78365;SDS011;67641;59.864;30.464;2024-01-15T06:17:26;11.10;;;1.95;;
78365;SDS011;67641;59.864;30.464;2024-01-15T06:19:52;11.07;;;1.92;;
78365;SDS011;67641;59.864;30.464;2024-01-15T06:22:19;7.65;;;1.55;;
78365;SDS011;67641;59.864;30.464;2024-01-15T06:24:46;10.18;;;2.22;;
78365;SDS011;67641;59.864;30.464;2024-01-15T06:27:13;7.60;;;2.20;;
78365;SDS011;67641;59.864;30.464;2024-01-15T06:29:44;7.00;;;2.10;;
78365;SDS011;67641;59.864;30.464;2024-01-15T06:32:14;6.25;;;1.60;;
78365;SDS011;67641;59.864;30.464;2024-01-15T06:34:41;8.82;;;2.15;;
78365;SDS011;67641;59.864;30.464;2024-01-15T06:37:08;4.45;;;1.88;;
78365;SDS011;67641;59.864;30.464;2024-01-15T06:39:34;6.20;;;1.67;;
78365;SDS011;67641;59.864;30.464;2024-01-15T06:42:00;4.65;;;1.65;;
78365;SDS011;67641;59.864;30.464;2024-01-15T06:44:26;11.38;;;2.13;;
78365;SDS011;67641;59.864;30.464;2024-01-15T06:46:52;9.13;;;1.60;;
78365;SDS011;67641;59.864;30.464;2024-01-15T06:49:23;5.28;;;1.60;;
78365;SDS011;67641;59.864;30.464;2024-01-15T06:51:49;4.68;;;1.70;;
78365;SDS011;67641;59.864;30.464;2024-01-15T06:54:15;9.35;;;1.88;;
78365;SDS011;67641;59.864;30.464;2024-01-15T06:56:41;7.72;;;2.33;;
78365;SDS011;67641;59.864;30.464;2024-01-15T06:59:07;7.90;;;2.25;;
78365;SDS011;67641;59.864;30.464;2024-01-15T07:01:33;15.82;;;2.80;;
78365;SDS011;67641;59.864;30.464;2024-01-15T07:04:00;6.03;;;2.40;;
78365;SDS011;67641;59.864;30.464;2024-01-15T07:06:26;8.07;;;2.00;;
78365;SDS011;67641;59.864;30.464;2024-01-15T07:08:52;5.82;;;1.90;;
78365;SDS011;67641;59.864;30.464;2024-01-15T07:11:18;5.88;;;1.80;;
78365;SDS011;67641;59.864;30.464;2024-01-15T07:13:44;4.97;;;1.80;;
78365;SDS011;67641;59.864;30.464;2024-01-15T07:16:11;7.07;;;2.20;;
78365;SDS011;67641;59.864;30.464;2024-01-15T07:18:37;6.35;;;2.20;;
78365;SDS011;67641;59.864;30.464;2024-01-15T07:21:03;5.95;;;1.80;;
78365;SDS011;67641;59.864;30.464;2024-01-15T07:23:30;4.93;;;2.03;;
78365;SDS011;67641;59.864;30.464;2024-01-15T07:25:57;5.75;;;2.10;;
78365;SDS011;67641;59.864;30.464;2024-01-15T07:28:23;6.03;;;1.92;;
78365;SDS011;67641;59.864;30.464;2024-01-15T07:30:49;5.13;;;1.83;;
78365;SDS011;67641;59.864;30.464;2024-01-15T07:33:15;6.05;;;2.05;;
78365;SDS011;67641;59.864;30.464;2024-01-15T07:35:42;5.05;;;1.95;;
78365;SDS011;67641;59.864;30.464;2024-01-15T07:38:09;3.90;;;1.52;;
78365;SDS011;67641;59.864;30.464;2024-01-15T07:40:37;3.33;;;1.45;;
78365;SDS011;67641;59.864;30.464;2024-01-15T07:43:04;7.88;;;1.80;;
78365;SDS011;67641;59.864;30.464;2024-01-15T07:45:30;7.97;;;2.15;;
78365;SDS011;67641;59.864;30.464;2024-01-15T07:47:57;7.97;;;2.22;;
78365;SDS011;67641;59.864;30.464;2024-01-15T07:50:24;4.05;;;1.90;;
78365;SDS011;67641;59.864;30.464;2024-01-15T07:52:50;8.40;;;1.80;;
78365;SDS011;67641;59.864;30.464;2024-01-15T07:55:19;3.83;;;1.67;;
78365;SDS011;67641;59.864;30.464;2024-01-15T07:57:45;4.97;;;1.70;;
78365;SDS011;67641;59.864;30.464;2024-01-15T08:00:12;6.75;;;1.90;;
78365;SDS011;67641;59.864;30.464;2024-01-15T08:02:39;7.03;;;1.60;;
78365;SDS011;67641;59.864;30.464;2024-01-15T08:05:06;4.15;;;1.73;;
78365;SDS011;67641;59.864;30.464;2024-01-15T08:07:32;4.55;;;1.58;;
78365;SDS011;67641;59.864;30.464;2024-01-15T08:09:59;4.20;;;1.80;;
78365;SDS011;67641;59.864;30.464;2024-01-15T08:12:26;5.35;;;1.52;;
78365;SDS011;67641;59.864;30.464;2024-01-15T08:14:52;3.55;;;1.75;;
78365;SDS011;67641;59.864;30.464;2024-01-15T08:17:20;4.97;;;1.40;;
78365;SDS011;67641;59.864;30.464;2024-01-15T08:19:46;8.88;;;1.90;;
78365;SDS011;67641;59.864;30.464;2024-01-15T08:22:13;4.53;;;1.58;;
78365;SDS011;67641;59.864;30.464;2024-01-15T08:24:40;6.13;;;1.65;;
78365;SDS011;67641;59.864;30.464;2024-01-15T08:27:07;4.57;;;1.77;;
78365;SDS011;67641;59.864;30.464;2024-01-15T08:29:33;4.15;;;1.55;;
78365;SDS011;67641;59.864;30.464;2024-01-15T08:32:00;4.72;;;1.42;;
78365;SDS011;67641;59.864;30.464;2024-01-15T08:34:27;5.97;;;1.60;;
78365;SDS011;67641;59.864;30.464;2024-01-15T08:36:54;5.93;;;1.50;;
78365;SDS011;67641;59.864;30.464;2024-01-15T08:39:20;7.93;;;1.90;;
78365;SDS011;67641;59.864;30.464;2024-01-15T08:41:46;4.35;;;1.40;;
78365;SDS011;67641;59.864;30.464;2024-01-15T08:44:12;4.25;;;1.63;;
78365;SDS011;67641;59.864;30.464;2024-01-15T08:46:38;5.95;;;1.73;;
78365;SDS011;67641;59.864;30.464;2024-01-15T08:49:04;4.82;;;1.67;;
78365;SDS011;67641;59.864;30.464;2024-01-15T08:51:31;5.50;;;1.35;;
78365;SDS011;67641;59.864;30.464;2024-01-15T08:53:57;4.68;;;1.70;;
78365;SDS011;67641;59.864;30.464;2024-01-15T08:56:23;7.50;;;1.85;;
78365;SDS011;67641;59.864;30.464;2024-01-15T08:58:50;4.68;;;1.30;;
78365;SDS011;67641;59.864;30.464;2024-01-15T09:01:16;3.90;;;1.30;;
78365;SDS011;67641;59.864;30.464;2024-01-15T09:03:42;6.70;;;1.33;;
78365;SDS011;67641;59.864;30.464;2024-01-15T09:06:08;3.80;;;1.33;;
78365;SDS011;67641;59.864;30.464;2024-01-15T09:08:35;4.40;;;1.65;;
78365;SDS011;67641;59.864;30.464;2024-01-15T09:11:02;6.40;;;1.42;;
78365;SDS011;67641;59.864;30.464;2024-01-15T09:13:29;6.30;;;1.30;;
78365;SDS011;67641;59.864;30.464;2024-01-15T09:15:56;5.07;;;2.22;;
78365;SDS011;67641;59.864;30.464;2024-01-15T09:18:22;5.38;;;2.00;;
78365;SDS011;67641;59.864;30.464;2024-01-15T09:20:48;3.30;;;1.40;;
78365;SDS011;67641;59.864;30.464;2024-01-15T09:23:14;5.30;;;1.65;;
78365;SDS011;67641;59.864;30.464;2024-01-15T09:25:41;3.85;;;1.60;;
78365;SDS011;67641;59.864;30.464;2024-01-15T09:28:07;3.13;;;1.45;;
78365;SDS011;67641;59.864;30.464;2024-01-15T09:30:33;4.35;;;1.65;;
78365;SDS011;67641;59.864;30.464;2024-01-15T09:32:59;4.38;;;1.50;;
78365;SDS011;67641;59.864;30.464;2024-01-15T09:35:26;2.95;;;0.88;;
78365;SDS011;67641;59.864;30.464;2024-01-15T09:37:52;3.05;;;0.82;;
78365;SDS011;67641;59.864;30.464;2024-01-15T09:40:18;6.57;;;1.75;;
78365;SDS011;67641;59.864;30.464;2024-01-15T09:42:46;5.97;;;1.40;;
78365;SDS011;67641;59.864;30.464;2024-01-15T09:45:13;6.65;;;1.27;;
78365;SDS011;67641;59.864;30.464;2024-01-15T09:47:40;2.83;;;0.90;;
78365;SDS011;67641;59.864;30.464;2024-01-15T09:50:07;4.32;;;1.60;;
78365;SDS011;67641;59.864;30.464;2024-01-15T09:52:34;3.55;;;1.50;;
78365;SDS011;67641;59.864;30.464;2024-01-15T09:55:02;4.82;;;1.48;;
78365;SDS011;67641;59.864;30.464;2024-01-15T09:57:31;4.85;;;1.42;;
78365;SDS011;67641;59.864;30.464;2024-01-15T09:59:57;5.80;;;1.50;;
78365;SDS011;67641;59.864;30.464;2024-01-15T10:02:29;7.53;;;2.10;;
78365;SDS011;67641;59.864;30.464;2024-01-15T10:04:56;5.82;;;2.45;;
78365;SDS011;67641;59.864;30.464;2024-01-15T10:07:22;7.30;;;1.90;;
78365;SDS011;67641;59.864;30.464;2024-01-15T10:09:50;4.93;;;1.48;;
78365;SDS011;67641;59.864;30.464;2024-01-15T10:12:17;3.97;;;1.42;;
78365;SDS011;67641;59.864;30.464;2024-01-15T10:14:43;3.88;;;1.60;;
78365;SDS011;67641;59.864;30.464;2024-01-15T10:17:12;4.65;;;1.90;;
78365;SDS011;67641;59.864;30.464;2024-01-15T10:19:43;3.97;;;1.83;;
78365;SDS011;67641;59.864;30.464;2024-01-15T10:22:10;4.22;;;1.67;;
78365;SDS011;67641;59.864;30.464;2024-01-15T10:24:37;9.93;;;1.88;;
78365;SDS011;67641;59.864;30.464;2024-01-15T10:27:08;9.02;;;1.80;;
78365;SDS011;67641;59.864;30.464;2024-01-15T10:29:35;5.55;;;1.75;;
78365;SDS011;67641;59.864;30.464;2024-01-15T10:32:02;5.22;;;1.80;;
78365;SDS011;67641;59.864;30.464;2024-01-15T10:34:31;3.80;;;1.48;;
78365;SDS011;67641;59.864;30.464;2024-01-15T10:36:59;4.20;;;1.38;;
78365;SDS011;67641;59.864;30.464;2024-01-15T10:41:55;3.17;;;1.55;;
78365;SDS011;67641;59.864;30.464;2024-01-15T10:44:21;4.72;;;1.30;;
78365;SDS011;67641;59.864;30.464;2024-01-15T10:46:47;5.78;;;1.55;;
78365;SDS011;67641;59.864;30.464;2024-01-15T10:49:13;4.22;;;1.70;;
78365;SDS011;67641;59.864;30.464;2024-01-15T10:51:41;2.85;;;1.33;;
78365;SDS011;67641;59.864;30.464;2024-01-15T10:54:08;3.92;;;1.40;;
78365;SDS011;67641;59.864;30.464;2024-01-15T10:56:36;7.00;;;1.52;;
78365;SDS011;67641;59.864;30.464;2024-01-15T10:59:03;5.30;;;1.27;;
78365;SDS011;67641;59.864;30.464;2024-01-15T11:01:30;4.75;;;1.20;;
78365;SDS011;67641;59.864;30.464;2024-01-15T11:03:56;4.18;;;1.42;;
78365;SDS011;67641;59.864;30.464;2024-01-15T11:06:23;5.10;;;1.25;;
78365;SDS011;67641;59.864;30.464;2024-01-15T11:08:50;4.32;;;1.70;;
78365;SDS011;67641;59.864;30.464;2024-01-15T11:11:18;3.75;;;1.40;;
78365;SDS011;67641;59.864;30.464;2024-01-15T11:13:47;5.13;;;1.95;;
78365;SDS011;67641;59.864;30.464;2024-01-15T11:16:16;6.43;;;1.30;;
78365;SDS011;67641;59.864;30.464;2024-01-15T11:18:43;5.97;;;1.75;;
78365;SDS011;67641;59.864;30.464;2024-01-15T11:21:27;4.38;;;1.40;;
78365;SDS011;67641;59.864;30.464;2024-01-15T11:23:58;3.88;;;1.23;;
78365;SDS011;67641;59.864;30.464;2024-01-15T11:26:33;3.97;;;1.20;;
78365;SDS011;67641;59.864;30.464;2024-01-15T11:34:54;3.72;;;1.13;;
78365;SDS011;67641;59.864;30.464;2024-01-15T11:37:25;5.25;;;2.10;;
78365;SDS011;67641;59.864;30.464;2024-01-15T11:39:53;3.38;;;1.10;;
78365;SDS011;67641;59.864;30.464;2024-01-15T11:42:20;4.72;;;1.23;;
78365;SDS011;67641;59.864;30.464;2024-01-15T11:44:47;4.00;;;1.33;;
78365;SDS011;67641;59.864;30.464;2024-01-15T11:47:14;5.85;;;1.02;;
78365;SDS011;67641;59.864;30.464;2024-01-15T11:49:59;3.85;;;1.08;;
78365;SDS011;67641;59.864;30.464;2024-01-15T11:52:34;5.18;;;1.40;;
78365;SDS011;67641;59.864;30.464;2024-01-15T11:55:26;4.07;;;1.55;;
78365;SDS011;67641;59.864;30.464;2024-01-15T11:57:54;6.32;;;1.10;;
78365;SDS011;67641;59.864;30.464;2024-01-15T12:00:20;5.57;;;0.95;;
78365;SDS011;67641;59.864;30.464;2024-01-15T12:02:48;4.00;;;1.10;;
78365;SDS011;67641;59.864;30.464;2024-01-15T12:05:16;5.93;;;1.40;;
78365;SDS011;67641;59.864;30.464;2024-01-15T12:07:44;3.88;;;0.90;;
78365;SDS011;67641;59.864;30.464;2024-01-15T12:10:11;3.63;;;1.60;;
78365;SDS011;67641;59.864;30.464;2024-01-15T12:15:13;5.22;;;1.63;;
78365;SDS011;67641;59.864;30.464;2024-01-15T12:17:40;4.32;;;0.95;;
78365;SDS011;67641;59.864;30.464;2024-01-15T12:20:06;3.30;;;0.85;;
78365;SDS011;67641;59.864;30.464;2024-01-15T12:22:33;3.55;;;0.90;;
78365;SDS011;67641;59.864;30.464;2024-01-15T12:24:59;3.13;;;0.80;;
78365;SDS011;67641;59.864;30.464;2024-01-15T12:27:25;5.70;;;1.25;;
78365;SDS011;67641;59.864;30.464;2024-01-15T12:29:54;3.30;;;1.00;;
78365;SDS011;67641;59.864;30.464;2024-01-15T12:32:21;3.92;;;0.82;;
78365;SDS011;67641;59.864;30.464;2024-01-15T12:34:49;3.92;;;0.80;;
78365;SDS011;67641;59.864;30.464;2024-01-15T12:37:19;4.78;;;1.50;;
78365;SDS011;67641;59.864;30.464;2024-01-15T12:39:46;5.93;;;2.20;;
78365;SDS011;67641;59.864;30.464;2024-01-15T12:42:16;3.58;;;1.52;;
78365;SDS011;67641;59.864;30.464;2024-01-15T12:44:46;4.30;;;1.60;;
78365;SDS011;67641;59.864;30.464;2024-01-15T12:47:13;2.47;;;0.98;;
78365;SDS011;67641;59.864;30.464;2024-01-15T12:49:46;4.15;;;1.60;;
78365;SDS011;67641;59.864;30.464;2024-01-15T12:52:15;5.30;;;2.00;;
78365;SDS011;67641;59.864;30.464;2024-01-15T12:54:42;4.03;;;1.30;;
78365;SDS011;67641;59.864;30.464;2024-01-15T12:57:09;3.08;;;1.15;;
78365;SDS011;67641;59.864;30.464;2024-01-15T12:59:36;6.40;;;1.33;;
78365;SDS011;67641;59.864;30.464;2024-01-15T13:02:02;3.80;;;0.90;;
78365;SDS011;67641;59.864;30.464;2024-01-15T13:04:29;3.67;;;1.00;;
78365;SDS011;67641;59.864;30.464;2024-01-15T13:06:56;4.85;;;1.70;;
78365;SDS011;67641;59.864;30.464;2024-01-15T13:09:23;2.75;;;0.90;;
78365;SDS011;67641;59.864;30.464;2024-01-15T13:11:50;4.05;;;0.93;;
78365;SDS011;67641;59.864;30.464;2024-01-15T13:14:18;3.20;;;0.80;;
78365;SDS011;67641;59.864;30.464;2024-01-15T13:16:45;3.35;;;0.77;;
78365;SDS011;67641;59.864;30.464;2024-01-15T13:19:11;3.03;;;1.00;;
78365;SDS011;67641;59.864;30.464;2024-01-15T13:21:40;4.30;;;1.17;;
78365;SDS011;67641;59.864;30.464;2024-01-15T13:24:07;6.75;;;1.25;;
78365;SDS011;67641;59.864;30.464;2024-01-15T13:26:33;3.88;;;1.05;;
78365;SDS011;67641;59.864;30.464;2024-01-15T13:29:01;5.07;;;1.25;;
78365;SDS011;67641;59.864;30.464;2024-01-15T13:31:27;2.58;;;0.93;;
78365;SDS011;67641;59.864;30.464;2024-01-15T13:33:54;3.20;;;1.20;;
78365;SDS011;67641;59.864;30.464;2024-01-15T13:36:24;5.57;;;1.00;;
78365;SDS011;67641;59.864;30.464;2024-01-15T13:38:51;4.10;;;0.98;;
78365;SDS011;67641;59.864;30.464;2024-01-15T13:41:19;6.60;;;0.90;;
78365;SDS011;67641;59.864;30.464;2024-01-15T13:43:50;3.67;;;1.10;;
78365;SDS011;67641;59.864;30.464;2024-01-15T13:46:23;2.38;;;0.80;;
78365;SDS011;67641;59.864;30.464;2024-01-15T13:48:52;2.78;;;1.10;;
78365;SDS011;67641;59.864;30.464;2024-01-15T13:51:19;2.50;;;0.90;;
78365;SDS011;67641;59.864;30.464;2024-01-15T13:53:49;2.22;;;0.95;;
78365;SDS011;67641;59.864;30.464;2024-01-15T13:56:16;3.15;;;1.10;;
78365;SDS011;67641;59.864;30.464;2024-01-15T13:58:42;4.30;;;1.35;;
78365;SDS011;67641;59.864;30.464;2024-01-15T14:01:09;3.55;;;1.00;;
78365;SDS011;67641;59.864;30.464;2024-01-15T14:03:36;3.92;;;1.00;;
78365;SDS011;67641;59.864;30.464;2024-01-15T14:06:02;5.22;;;1.05;;
78365;SDS011;67641;59.864;30.464;2024-01-15T14:08:29;7.60;;;1.60;;
78365;SDS011;67641;59.864;30.464;2024-01-15T14:11:01;3.20;;;1.25;;
78365;SDS011;67641;59.864;30.464;2024-01-15T14:13:28;5.00;;;1.20;;
78365;SDS011;67641;59.864;30.464;2024-01-15T14:15:54;6.45;;;1.40;;
78365;SDS011;67641;59.864;30.464;2024-01-15T14:18:21;6.68;;;1.88;;
78365;SDS011;67641;59.864;30.464;2024-01-15T14:20:47;4.28;;;1.10;;
78365;SDS011;67641;59.864;30.464;2024-01-15T14:23:13;3.47;;;1.08;;
78365;SDS011;67641;59.864;30.464;2024-01-15T14:25:39;3.92;;;1.40;;
78365;SDS011;67641;59.864;30.464;2024-01-15T14:28:06;6.95;;;1.30;;
78365;SDS011;67641;59.864;30.464;2024-01-15T14:30:32;4.43;;;1.30;;
78365;SDS011;67641;59.864;30.464;2024-01-15T14:32:58;7.72;;;1.40;;
78365;SDS011;67641;59.864;30.464;2024-01-15T14:35:25;4.80;;;1.20;;
78365;SDS011;67641;59.864;30.464;2024-01-15T14:37:51;7.10;;;1.30;;
78365;SDS011;67641;59.864;30.464;2024-01-15T14:40:18;3.70;;;1.70;;
78365;SDS011;67641;59.864;30.464;2024-01-15T14:42:45;5.28;;;1.50;;
78365;SDS011;67641;59.864;30.464;2024-01-15T14:45:11;4.10;;;1.33;;